sensor_id;sensor_type;location;lat;lon;timestamp;P1;durP1;ratioP1;P2;durP2;ratioP2
28958;SDS011;16066;0.000;0.000;2023-03-12T00:00:15;16.50;;;11.30;;
28958;SDS011;16066;0.000;0.000;2023-03-12T00:02:41;12.07;;;9.60;;
28958;SDS011;16066;0.000;0.000;2023-03-12T00:05:07;15.07;;;10.50;;
28958;SDS011;16066;0.000;0.000;2023-03-12T00:07:32;13.67;;;10.70;;
28958;SDS011;16066;0.000;0.000;2023-03-12T00:10:00;15.93;;;10.63;;
28958;SDS011;16066;0.000;0.000;2023-03-12T00:12:27;13.47;;;9.60;;
28958;SDS011;16066;0.000;0.000;2023-03-12T00:14:53;13.00;;;9.70;;
28958;SDS011;16066;0.000;0.000;2023-03-12T00:17:18;14.53;;;10.30;;
28958;SDS011;16066;0.000;0.000;2023-03-12T00:19:44;15.23;;;10.07;;
28958;SDS011;16066;0.000;0.000;2023-03-12T00:22:09;11.70;;;9.30;;
28958;SDS011;16066;0.000;0.000;2023-03-12T00:24:35;12.23;;;9.83;;
28958;SDS011;16066;0.000;0.000;2023-03-12T00:27:00;14.67;;;9.63;;
28958;SDS011;16066;0.000;0.000;2023-03-12T00:29:26;13.50;;;9.97;;
28958;SDS011;16066;0.000;0.000;2023-03-12T00:31:51;14.07;;;10.03;;
28958;SDS011;16066;0.000;0.000;2023-03-12T00:34:17;13.97;;;10.43;;
28958;SDS011;16066;0.000;0.000;2023-03-12T00:36:42;12.60;;;9.53;;
28958;SDS011;16066;0.000;0.000;2023-03-12T00:39:08;13.57;;;10.40;;
28958;SDS011;16066;0.000;0.000;2023-03-12T00:41:34;13.90;;;9.93;;
28958;SDS011;16066;0.000;0.000;2023-03-12T00:44:00;14.77;;;9.83;;
28958;SDS011;16066;0.000;0.000;2023-03-12T00:46:25;16.00;;;11.13;;
28958;SDS011;16066;0.000;0.000;2023-03-12T00:48:51;13.83;;;10.47;;
28958;SDS011;16066;0.000;0.000;2023-03-12T00:51:17;15.83;;;10.93;;
28958;SDS011;16066;0.000;0.000;2023-03-12T00:53:42;14.60;;;10.90;;
28958;SDS011;16066;0.000;0.000;2023-03-12T00:56:08;16.53;;;11.37;;
28958;SDS011;16066;0.000;0.000;2023-03-12T00:58:34;13.33;;;9.67;;
28958;SDS011;16066;0.000;0.000;2023-03-12T01:00:59;14.70;;;10.97;;
28958;SDS011;16066;0.000;0.000;2023-03-12T01:03:25;14.97;;;10.33;;
28958;SDS011;16066;0.000;0.000;2023-03-12T01:05:50;19.50;;;10.97;;
28958;SDS011;16066;0.000;0.000;2023-03-12T01:08:19;13.57;;;10.20;;
28958;SDS011;16066;0.000;0.000;2023-03-12T01:10:45;17.67;;;11.17;;
28958;SDS011;16066;0.000;0.000;2023-03-12T01:13:10;17.07;;;10.67;;
28958;SDS011;16066;0.000;0.000;2023-03-12T01:15:36;13.33;;;9.87;;
28958;SDS011;16066;0.000;0.000;2023-03-12T01:18:02;14.50;;;10.53;;
28958;SDS011;16066;0.000;0.000;2023-03-12T01:20:27;22.20;;;10.07;;
28958;SDS011;16066;0.000;0.000;2023-03-12T01:22:53;12.80;;;9.90;;
28958;SDS011;16066;0.000;0.000;2023-03-12T01:25:18;16.00;;;11.57;;
28958;SDS011;16066;0.000;0.000;2023-03-12T01:27:44;14.20;;;11.00;;
28958;SDS011;16066;0.000;0.000;2023-03-12T01:30:10;19.00;;;12.10;;
28958;SDS011;16066;0.000;0.000;2023-03-12T01:32:36;13.77;;;10.50;;
28958;SDS011;16066;0.000;0.000;2023-03-12T01:35:01;14.10;;;11.17;;
28958;SDS011;16066;0.000;0.000;2023-03-12T01:37:27;16.73;;;12.00;;
28958;SDS011;16066;0.000;0.000;2023-03-12T01:39:53;15.77;;;10.73;;
28958;SDS011;16066;0.000;0.000;2023-03-12T01:42:18;15.90;;;11.60;;
28958;SDS011;16066;0.000;0.000;2023-03-12T01:45:00;14.13;;;10.57;;
28958;SDS011;16066;0.000;0.000;2023-03-12T01:47:27;15.30;;;11.60;;
28958;SDS011;16066;0.000;0.000;2023-03-12T01:49:56;16.57;;;11.90;;
28958;SDS011;16066;0.000;0.000;2023-03-12T01:52:42;14.20;;;9.90;;
28958;SDS011;16066;0.000;0.000;2023-03-12T01:55:12;17.77;;;11.70;;
28958;SDS011;16066;0.000;0.000;2023-03-12T01:57:42;15.90;;;11.57;;
28958;SDS011;16066;0.000;0.000;2023-03-12T02:00:20;14.17;;;10.93;;
28958;SDS011;16066;0.000;0.000;2023-03-12T02:02:48;14.93;;;11.90;;
28958;SDS011;16066;0.000;0.000;2023-03-12T02:08:07;15.57;;;11.00;;
28958;SDS011;16066;0.000;0.000;2023-03-12T02:10:34;14.63;;;11.30;;
28958;SDS011;16066;0.000;0.000;2023-03-12T02:12:59;15.83;;;11.30;;
28958;SDS011;16066;0.000;0.000;2023-03-12T02:15:25;13.73;;;9.93;;
28958;SDS011;16066;0.000;0.000;2023-03-12T02:17:51;16.20;;;11.17;;
28958;SDS011;16066;0.000;0.000;2023-03-12T02:20:26;17.43;;;11.70;;
28958;SDS011;16066;0.000;0.000;2023-03-12T02:23:02;15.10;;;11.53;;
28958;SDS011;16066;0.000;0.000;2023-03-12T02:25:36;16.50;;;11.40;;
28958;SDS011;16066;0.000;0.000;2023-03-12T02:28:04;15.40;;;11.33;;
28958;SDS011;16066;0.000;0.000;2023-03-12T02:30:31;16.73;;;10.63;;
28958;SDS011;16066;0.000;0.000;2023-03-12T02:33:02;15.33;;;11.20;;
28958;SDS011;16066;0.000;0.000;2023-03-12T02:35:31;15.47;;;10.90;;
28958;SDS011;16066;0.000;0.000;2023-03-12T02:37:57;16.27;;;11.60;;
28958;SDS011;16066;0.000;0.000;2023-03-12T02:40:40;16.47;;;10.53;;
28958;SDS011;16066;0.000;0.000;2023-03-12T02:43:09;14.43;;;9.90;;
28958;SDS011;16066;0.000;0.000;2023-03-12T02:45:36;14.90;;;11.47;;
28958;SDS011;16066;0.000;0.000;2023-03-12T02:48:03;16.57;;;11.30;;
28958;SDS011;16066;0.000;0.000;2023-03-12T02:50:32;16.10;;;10.90;;
28958;SDS011;16066;0.000;0.000;2023-03-12T02:52:57;15.67;;;11.50;;
28958;SDS011;16066;0.000;0.000;2023-03-12T02:55:23;17.53;;;12.07;;
28958;SDS011;16066;0.000;0.000;2023-03-12T02:57:48;16.03;;;11.73;;
28958;SDS011;16066;0.000;0.000;2023-03-12T03:00:14;16.67;;;11.30;;
28958;SDS011;16066;0.000;0.000;2023-03-12T03:02:40;16.70;;;11.50;;
28958;SDS011;16066;0.000;0.000;2023-03-12T03:05:06;15.00;;;11.40;;
28958;SDS011;16066;0.000;0.000;2023-03-12T03:07:33;12.63;;;10.20;;
28958;SDS011;16066;0.000;0.000;2023-03-12T03:09:59;15.80;;;11.00;;
28958;SDS011;16066;0.000;0.000;2023-03-12T03:12:28;13.60;;;10.40;;
28958;SDS011;16066;0.000;0.000;2023-03-12T03:14:54;14.90;;;11.50;;
28958;SDS011;16066;0.000;0.000;2023-03-12T03:17:20;15.10;;;10.03;;
28958;SDS011;16066;0.000;0.000;2023-03-12T03:19:47;17.90;;;11.23;;
28958;SDS011;16066;0.000;0.000;2023-03-12T03:22:12;15.67;;;11.10;;
28958;SDS011;16066;0.000;0.000;2023-03-12T03:24:38;13.73;;;9.87;;
28958;SDS011;16066;0.000;0.000;2023-03-12T03:27:03;13.57;;;9.73;;
28958;SDS011;16066;0.000;0.000;2023-03-12T03:29:29;15.13;;;10.90;;
28958;SDS011;16066;0.000;0.000;2023-03-12T03:31:54;15.43;;;11.33;;
28958;SDS011;16066;0.000;0.000;2023-03-12T03:34:20;14.17;;;11.20;;
28958;SDS011;16066;0.000;0.000;2023-03-12T03:36:45;14.50;;;9.73;;
28958;SDS011;16066;0.000;0.000;2023-03-12T03:39:11;13.93;;;9.83;;
28958;SDS011;16066;0.000;0.000;2023-03-12T03:41:36;14.70;;;10.40;;
28958;SDS011;16066;0.000;0.000;2023-03-12T03:44:02;14.10;;;10.77;;
28958;SDS011;16066;0.000;0.000;2023-03-12T03:46:29;15.27;;;10.70;;
28958;SDS011;16066;0.000;0.000;2023-03-12T03:48:55;14.93;;;10.50;;
28958;SDS011;16066;0.000;0.000;2023-03-12T03:51:21;15.57;;;10.00;;
28958;SDS011;16066;0.000;0.000;2023-03-12T03:53:46;15.20;;;10.30;;
28958;SDS011;16066;0.000;0.000;2023-03-12T03:56:13;12.20;;;9.37;;
28958;SDS011;16066;0.000;0.000;2023-03-12T03:58:40;14.67;;;10.13;;
28958;SDS011;16066;0.000;0.000;2023-03-12T04:01:05;14.23;;;10.47;;
28958;SDS011;16066;0.000;0.000;2023-03-12T04:03:32;13.87;;;9.63;;
28958;SDS011;16066;0.000;0.000;2023-03-12T04:05:59;15.00;;;10.27;;
28958;SDS011;16066;0.000;0.000;2023-03-12T04:08:26;13.90;;;10.30;;
28958;SDS011;16066;0.000;0.000;2023-03-12T04:10:52;13.37;;;10.17;;
28958;SDS011;16066;0.000;0.000;2023-03-12T04:13:18;14.63;;;10.40;;
28958;SDS011;16066;0.000;0.000;2023-03-12T04:15:47;13.37;;;9.30;;
28958;SDS011;16066;0.000;0.000;2023-03-12T04:18:14;14.97;;;10.53;;
28958;SDS011;16066;0.000;0.000;2023-03-12T04:20:40;11.80;;;9.33;;
28958;SDS011;16066;0.000;0.000;2023-03-12T04:23:06;14.83;;;9.97;;
28958;SDS011;16066;0.000;0.000;2023-03-12T04:25:31;13.80;;;10.10;;
28958;SDS011;16066;0.000;0.000;2023-03-12T04:27:57;13.10;;;9.83;;
28958;SDS011;16066;0.000;0.000;2023-03-12T04:30:22;14.80;;;10.73;;
28958;SDS011;16066;0.000;0.000;2023-03-12T04:32:48;14.40;;;10.00;;
28958;SDS011;16066;0.000;0.000;2023-03-12T04:35:13;11.10;;;8.50;;
28958;SDS011;16066;0.000;0.000;2023-03-12T04:37:39;13.27;;;10.10;;
28958;SDS011;16066;0.000;0.000;2023-03-12T04:40:04;14.10;;;10.33;;
28958;SDS011;16066;0.000;0.000;2023-03-12T04:42:35;12.20;;;8.87;;
28958;SDS011;16066;0.000;0.000;2023-03-12T04:45:01;12.80;;;9.20;;
28958;SDS011;16066;0.000;0.000;2023-03-12T04:47:31;12.67;;;9.57;;
28958;SDS011;16066;0.000;0.000;2023-03-12T04:49:57;13.47;;;9.80;;
28958;SDS011;16066;0.000;0.000;2023-03-12T04:52:23;13.83;;;9.30;;
28958;SDS011;16066;0.000;0.000;2023-03-12T04:54:48;11.80;;;9.40;;
28958;SDS011;16066;0.000;0.000;2023-03-12T04:57:15;11.77;;;8.90;;
28958;SDS011;16066;0.000;0.000;2023-03-12T04:59:40;11.20;;;8.77;;
28958;SDS011;16066;0.000;0.000;2023-03-12T05:02:06;13.30;;;8.60;;
28958;SDS011;16066;0.000;0.000;2023-03-12T05:04:32;12.37;;;9.70;;
28958;SDS011;16066;0.000;0.000;2023-03-12T05:06:57;12.13;;;8.93;;
28958;SDS011;16066;0.000;0.000;2023-03-12T05:09:23;10.73;;;8.23;;
28958;SDS011;16066;0.000;0.000;2023-03-12T05:11:49;12.33;;;9.60;;
28958;SDS011;16066;0.000;0.000;2023-03-12T05:14:14;11.33;;;8.53;;
28958;SDS011;16066;0.000;0.000;2023-03-12T05:16:40;11.70;;;8.57;;
28958;SDS011;16066;0.000;0.000;2023-03-12T05:19:05;12.17;;;8.50;;
28958;SDS011;16066;0.000;0.000;2023-03-12T05:21:31;12.27;;;9.20;;
28958;SDS011;16066;0.000;0.000;2023-03-12T05:23:57;10.97;;;8.57;;
28958;SDS011;16066;0.000;0.000;2023-03-12T05:26:25;13.10;;;9.50;;
28958;SDS011;16066;0.000;0.000;2023-03-12T05:28:56;13.27;;;9.20;;
28958;SDS011;16066;0.000;0.000;2023-03-12T05:31:22;12.97;;;9.33;;
28958;SDS011;16066;0.000;0.000;2023-03-12T05:33:48;12.63;;;9.07;;
28958;SDS011;16066;0.000;0.000;2023-03-12T05:36:13;12.37;;;8.67;;
28958;SDS011;16066;0.000;0.000;2023-03-12T05:38:39;12.93;;;8.27;;
28958;SDS011;16066;0.000;0.000;2023-03-12T05:41:06;11.27;;;8.83;;
28958;SDS011;16066;0.000;0.000;2023-03-12T05:43:34;10.90;;;8.00;;
28958;SDS011;16066;0.000;0.000;2023-03-12T05:46:00;12.80;;;9.07;;
28958;SDS011;16066;0.000;0.000;2023-03-12T05:48:27;10.93;;;8.10;;
28958;SDS011;16066;0.000;0.000;2023-03-12T05:50:53;11.40;;;8.77;;
28958;SDS011;16066;0.000;0.000;2023-03-12T05:53:19;10.97;;;8.40;;
28958;SDS011;16066;0.000;0.000;2023-03-12T05:55:44;10.93;;;8.40;;
28958;SDS011;16066;0.000;0.000;2023-03-12T05:58:10;10.10;;;8.03;;
28958;SDS011;16066;0.000;0.000;2023-03-12T06:00:35;12.40;;;8.90;;
28958;SDS011;16066;0.000;0.000;2023-03-12T06:03:03;11.13;;;8.07;;
28958;SDS011;16066;0.000;0.000;2023-03-12T06:05:29;13.90;;;8.57;;
28958;SDS011;16066;0.000;0.000;2023-03-12T06:07:56;12.23;;;8.93;;
28958;SDS011;16066;0.000;0.000;2023-03-12T06:10:22;10.10;;;7.93;;
28958;SDS011;16066;0.000;0.000;2023-03-12T06:12:47;11.00;;;8.33;;
28958;SDS011;16066;0.000;0.000;2023-03-12T06:15:13;12.00;;;9.00;;
28958;SDS011;16066;0.000;0.000;2023-03-12T06:17:38;11.10;;;8.40;;
28958;SDS011;16066;0.000;0.000;2023-03-12T06:20:04;11.10;;;8.07;;
28958;SDS011;16066;0.000;0.000;2023-03-12T06:22:30;11.90;;;8.53;;
28958;SDS011;16066;0.000;0.000;2023-03-12T06:24:56;11.70;;;8.30;;
28958;SDS011;16066;0.000;0.000;2023-03-12T06:27:21;10.23;;;7.10;;
28958;SDS011;16066;0.000;0.000;2023-03-12T06:29:47;11.27;;;7.90;;
28958;SDS011;16066;0.000;0.000;2023-03-12T06:32:13;9.97;;;7.43;;
28958;SDS011;16066;0.000;0.000;2023-03-12T06:34:38;10.70;;;7.43;;
28958;SDS011;16066;0.000;0.000;2023-03-12T06:37:04;8.80;;;6.57;;
28958;SDS011;16066;0.000;0.000;2023-03-12T06:39:29;10.83;;;7.03;;
28958;SDS011;16066;0.000;0.000;2023-03-12T06:41:55;8.87;;;6.90;;
28958;SDS011;16066;0.000;0.000;2023-03-12T06:44:21;10.67;;;7.73;;
28958;SDS011;16066;0.000;0.000;2023-03-12T06:46:47;8.67;;;6.70;;
28958;SDS011;16066;0.000;0.000;2023-03-12T06:49:12;9.43;;;6.80;;
28958;SDS011;16066;0.000;0.000;2023-03-12T06:51:38;8.33;;;6.73;;
28958;SDS011;16066;0.000;0.000;2023-03-12T06:54:04;8.80;;;6.73;;
28958;SDS011;16066;0.000;0.000;2023-03-12T06:56:30;8.80;;;6.70;;
28958;SDS011;16066;0.000;0.000;2023-03-12T06:58:56;9.10;;;6.63;;
28958;SDS011;16066;0.000;0.000;2023-03-12T07:01:21;15.23;;;6.87;;
28958;SDS011;16066;0.000;0.000;2023-03-12T07:03:47;9.30;;;6.80;;
28958;SDS011;16066;0.000;0.000;2023-03-12T07:06:13;7.20;;;5.83;;
28958;SDS011;16066;0.000;0.000;2023-03-12T07:08:44;14.03;;;6.10;;
28958;SDS011;16066;0.000;0.000;2023-03-12T07:11:10;10.07;;;6.87;;
28958;SDS011;16066;0.000;0.000;2023-03-12T07:13:37;9.00;;;6.47;;
28958;SDS011;16066;0.000;0.000;2023-03-12T07:16:03;8.23;;;6.07;;
28958;SDS011;16066;0.000;0.000;2023-03-12T07:18:29;8.80;;;6.20;;
28958;SDS011;16066;0.000;0.000;2023-03-12T07:20:55;9.90;;;6.83;;
28958;SDS011;16066;0.000;0.000;2023-03-12T07:23:20;6.87;;;5.60;;
28958;SDS011;16066;0.000;0.000;2023-03-12T07:25:46;10.43;;;5.90;;
28958;SDS011;16066;0.000;0.000;2023-03-12T07:28:13;6.80;;;6.10;;
28958;SDS011;16066;0.000;0.000;2023-03-12T07:30:39;8.67;;;6.00;;
28958;SDS011;16066;0.000;0.000;2023-03-12T07:33:06;6.07;;;4.60;;
28958;SDS011;16066;0.000;0.000;2023-03-12T07:35:34;7.53;;;5.17;;
28958;SDS011;16066;0.000;0.000;2023-03-12T07:38:00;11.20;;;5.13;;
28958;SDS011;16066;0.000;0.000;2023-03-12T07:40:26;7.67;;;4.83;;
28958;SDS011;16066;0.000;0.000;2023-03-12T07:42:52;6.03;;;4.07;;
28958;SDS011;16066;0.000;0.000;2023-03-12T07:45:18;18.13;;;4.30;;
28958;SDS011;16066;0.000;0.000;2023-03-12T07:47:43;6.77;;;4.67;;
28958;SDS011;16066;0.000;0.000;2023-03-12T07:50:09;7.23;;;4.80;;
28958;SDS011;16066;0.000;0.000;2023-03-12T07:52:35;6.00;;;4.37;;
28958;SDS011;16066;0.000;0.000;2023-03-12T07:55:01;4.97;;;3.93;;
28958;SDS011;16066;0.000;0.000;2023-03-12T07:57:26;6.20;;;4.30;;
28958;SDS011;16066;0.000;0.000;2023-03-12T07:59:52;5.70;;;4.33;;
28958;SDS011;16066;0.000;0.000;2023-03-12T08:02:18;5.83;;;4.00;;
28958;SDS011;16066;0.000;0.000;2023-03-12T08:04:44;6.00;;;4.23;;
28958;SDS011;16066;0.000;0.000;2023-03-12T08:07:10;5.97;;;4.57;;
28958;SDS011;16066;0.000;0.000;2023-03-12T08:09:37;7.10;;;4.10;;
28958;SDS011;16066;0.000;0.000;2023-03-12T08:12:03;4.00;;;3.20;;
28958;SDS011;16066;0.000;0.000;2023-03-12T08:14:29;11.73;;;4.05;;
28958;SDS011;16066;0.000;0.000;2023-03-12T08:16:55;4.23;;;3.10;;
28958;SDS011;16066;0.000;0.000;2023-03-12T08:19:22;6.07;;;3.90;;
28958;SDS011;16066;0.000;0.000;2023-03-12T08:21:48;5.17;;;4.10;;
28958;SDS011;16066;0.000;0.000;2023-03-12T08:24:15;7.77;;;3.80;;
28958;SDS011;16066;0.000;0.000;2023-03-12T08:26:41;5.77;;;3.63;;
28958;SDS011;16066;0.000;0.000;2023-03-12T08:29:07;5.53;;;4.00;;
28958;SDS011;16066;0.000;0.000;2023-03-12T08:31:32;5.27;;;4.27;;
28958;SDS011;16066;0.000;0.000;2023-03-12T08:33:58;6.60;;;4.00;;
28958;SDS011;16066;0.000;0.000;2023-03-12T08:36:23;5.63;;;4.00;;
28958;SDS011;16066;0.000;0.000;2023-03-12T08:38:49;10.00;;;4.10;;
28958;SDS011;16066;0.000;0.000;2023-03-12T08:41:14;6.27;;;4.23;;
28958;SDS011;16066;0.000;0.000;2023-03-12T08:43:40;7.13;;;4.93;;
28958;SDS011;16066;0.000;0.000;2023-03-12T08:46:05;5.63;;;4.13;;
28958;SDS011;16066;0.000;0.000;2023-03-12T08:48:31;8.20;;;4.27;;
28958;SDS011;16066;0.000;0.000;2023-03-12T08:50:58;5.90;;;4.07;;
28958;SDS011;16066;0.000;0.000;2023-03-12T08:53:27;5.53;;;3.63;;
28958;SDS011;16066;0.000;0.000;2023-03-12T08:55:54;10.70;;;3.93;;
28958;SDS011;16066;0.000;0.000;2023-03-12T08:58:20;7.10;;;4.20;;
28958;SDS011;16066;0.000;0.000;2023-03-12T09:00:47;5.60;;;3.67;;
28958;SDS011;16066;0.000;0.000;2023-03-12T09:03:12;8.20;;;3.70;;
28958;SDS011;16066;0.000;0.000;2023-03-12T09:05:39;4.50;;;3.53;;
28958;SDS011;16066;0.000;0.000;2023-03-12T09:08:06;5.00;;;3.80;;
28958;SDS011;16066;0.000;0.000;2023-03-12T09:10:32;8.90;;;3.67;;
28958;SDS011;16066;0.000;0.000;2023-03-12T09:12:58;5.60;;;4.13;;
28958;SDS011;16066;0.000;0.000;2023-03-12T09:15:25;5.77;;;3.20;;
28958;SDS011;16066;0.000;0.000;2023-03-12T09:17:51;5.90;;;3.70;;
28958;SDS011;16066;0.000;0.000;2023-03-12T09:20:17;6.50;;;3.87;;
28958;SDS011;16066;0.000;0.000;2023-03-12T09:22:43;7.70;;;4.27;;
28958;SDS011;16066;0.000;0.000;2023-03-12T09:25:10;8.70;;;3.70;;
28958;SDS011;16066;0.000;0.000;2023-03-12T09:27:40;5.70;;;3.63;;
28958;SDS011;16066;0.000;0.000;2023-03-12T09:30:08;6.80;;;4.10;;
28958;SDS011;16066;0.000;0.000;2023-03-12T09:32:35;4.33;;;3.70;;
28958;SDS011;16066;0.000;0.000;2023-03-12T09:35:01;5.13;;;3.53;;
28958;SDS011;16066;0.000;0.000;2023-03-12T09:37:27;4.10;;;3.40;;
28958;SDS011;16066;0.000;0.000;2023-03-12T09:39:52;4.20;;;3.40;;
28958;SDS011;16066;0.000;0.000;2023-03-12T09:42:40;4.70;;;3.93;;
28958;SDS011;16066;0.000;0.000;2023-03-12T09:45:17;4.20;;;3.70;;
28958;SDS011;16066;0.000;0.000;2023-03-12T09:47:53;4.50;;;3.43;;
28958;SDS011;16066;0.000;0.000;2023-03-12T09:50:26;4.70;;;3.60;;
28958;SDS011;16066;0.000;0.000;2023-03-12T09:55:41;4.53;;;4.00;;
28958;SDS011;16066;0.000;0.000;2023-03-12T09:58:28;5.30;;;3.80;;
28958;SDS011;16066;0.000;0.000;2023-03-12T10:01:12;6.20;;;3.40;;
28958;SDS011;16066;0.000;0.000;2023-03-12T10:03:50;4.83;;;3.70;;
28958;SDS011;16066;0.000;0.000;2023-03-12T10:06:22;4.07;;;3.43;;
28958;SDS011;16066;0.000;0.000;2023-03-12T10:20:48;4.60;;;3.37;;
28958;SDS011;16066;0.000;0.000;2023-03-12T10:23:28;4.70;;;3.50;;
28958;SDS011;16066;0.000;0.000;2023-03-12T10:26:09;3.83;;;3.23;;
28958;SDS011;16066;0.000;0.000;2023-03-12T10:35:27;4.37;;;3.30;;
28958;SDS011;16066;0.000;0.000;2023-03-12T10:37:58;3.50;;;3.13;;
28958;SDS011;16066;0.000;0.000;2023-03-12T10:40:26;5.57;;;3.50;;
28958;SDS011;16066;0.000;0.000;2023-03-12T10:42:59;4.90;;;3.43;;
28958;SDS011;16066;0.000;0.000;2023-03-12T10:45:33;4.07;;;3.50;;
28958;SDS011;16066;0.000;0.000;2023-03-12T10:48:01;7.07;;;3.97;;
28958;SDS011;16066;0.000;0.000;2023-03-12T10:50:30;5.30;;;3.40;;
28958;SDS011;16066;0.000;0.000;2023-03-12T10:56:03;4.53;;;3.60;;
28958;SDS011;16066;0.000;0.000;2023-03-12T10:58:33;3.33;;;2.80;;
28958;SDS011;16066;0.000;0.000;2023-03-12T11:01:01;3.80;;;2.87;;
28958;SDS011;16066;0.000;0.000;2023-03-12T11:03:29;4.60;;;3.30;;
28958;SDS011;16066;0.000;0.000;2023-03-12T11:05:57;6.73;;;3.67;;
28958;SDS011;16066;0.000;0.000;2023-03-12T11:10:58;4.90;;;3.03;;
28958;SDS011;16066;0.000;0.000;2023-03-12T11:13:29;3.27;;;2.97;;
28958;SDS011;16066;0.000;0.000;2023-03-12T11:18:52;3.33;;;3.03;;
28958;SDS011;16066;0.000;0.000;2023-03-12T11:21:21;3.73;;;3.00;;
28958;SDS011;16066;0.000;0.000;2023-03-12T11:26:22;3.57;;;3.17;;
28958;SDS011;16066;0.000;0.000;2023-03-12T11:29:16;3.40;;;2.80;;
28958;SDS011;16066;0.000;0.000;2023-03-12T11:34:32;2.97;;;2.67;;
28958;SDS011;16066;0.000;0.000;2023-03-12T11:42:14;3.10;;;2.40;;
28958;SDS011;16066;0.000;0.000;2023-03-12T11:53:01;2.80;;;2.50;;
28958;SDS011;16066;0.000;0.000;2023-03-12T11:58:25;5.37;;;2.40;;
28958;SDS011;16066;0.000;0.000;2023-03-12T12:03:53;2.90;;;2.30;;
28958;SDS011;16066;0.000;0.000;2023-03-12T12:06:38;3.30;;;2.87;;
28958;SDS011;16066;0.000;0.000;2023-03-12T12:15:18;3.40;;;2.70;;
28958;SDS011;16066;0.000;0.000;2023-03-12T12:20:45;6.10;;;3.60;;
28958;SDS011;16066;0.000;0.000;2023-03-12T12:23:45;4.33;;;3.10;;
28958;SDS011;16066;0.000;0.000;2023-03-12T12:26:24;3.40;;;3.03;;
28958;SDS011;16066;0.000;0.000;2023-03-12T12:31:58;6.83;;;3.20;;
28958;SDS011;16066;0.000;0.000;2023-03-12T12:34:37;4.97;;;3.60;;
28958;SDS011;16066;0.000;0.000;2023-03-12T12:39:42;5.80;;;4.13;;
28958;SDS011;16066;0.000;0.000;2023-03-12T12:42:14;6.67;;;3.30;;
28958;SDS011;16066;0.000;0.000;2023-03-12T12:44:46;3.90;;;3.20;;
28958;SDS011;16066;0.000;0.000;2023-03-12T12:47:30;3.70;;;3.00;;
28958;SDS011;16066;0.000;0.000;2023-03-12T12:50:15;3.90;;;3.10;;
28958;SDS011;16066;0.000;0.000;2023-03-12T12:52:45;9.93;;;3.17;;
28958;SDS011;16066;0.000;0.000;2023-03-12T12:55:36;4.53;;;3.60;;
28958;SDS011;16066;0.000;0.000;2023-03-12T12:58:11;5.90;;;3.50;;
28958;SDS011;16066;0.000;0.000;2023-03-12T13:03:21;3.70;;;3.17;;
28958;SDS011;16066;0.000;0.000;2023-03-12T13:13:38;3.70;;;3.20;;
28958;SDS011;16066;0.000;0.000;2023-03-12T13:24:35;3.53;;;2.83;;
28958;SDS011;16066;0.000;0.000;2023-03-12T13:27:14;4.40;;;2.70;;
28958;SDS011;16066;0.000;0.000;2023-03-12T13:29:46;3.40;;;2.70;;
28958;SDS011;16066;0.000;0.000;2023-03-12T13:46:26;4.87;;;2.97;;
28958;SDS011;16066;0.000;0.000;2023-03-12T13:48:30;4.60;;;3.20;;
28958;SDS011;16066;0.000;0.000;2023-03-12T13:50:59;3.10;;;2.80;;
28958;SDS011;16066;0.000;0.000;2023-03-12T13:53:35;3.57;;;2.80;;
28958;SDS011;16066;0.000;0.000;2023-03-12T13:56:12;3.20;;;2.70;;
28958;SDS011;16066;0.000;0.000;2023-03-12T13:59:02;3.97;;;2.83;;
28958;SDS011;16066;0.000;0.000;2023-03-12T14:01:29;4.50;;;3.10;;
28958;SDS011;16066;0.000;0.000;2023-03-12T14:04:19;3.50;;;2.70;;
28958;SDS011;16066;0.000;0.000;2023-03-12T14:09:38;8.50;;;3.27;;
28958;SDS011;16066;0.000;0.000;2023-03-12T14:17:53;4.50;;;3.03;;
28958;SDS011;16066;0.000;0.000;2023-03-12T14:20:22;5.13;;;3.37;;
28958;SDS011;16066;0.000;0.000;2023-03-12T14:22:58;5.57;;;3.30;;
28958;SDS011;16066;0.000;0.000;2023-03-12T14:25:34;4.13;;;3.10;;
28958;SDS011;16066;0.000;0.000;2023-03-12T14:28:01;2.60;;;2.40;;
28958;SDS011;16066;0.000;0.000;2023-03-12T14:30:38;4.53;;;2.77;;
28958;SDS011;16066;0.000;0.000;2023-03-12T14:33:09;5.93;;;2.97;;
28958;SDS011;16066;0.000;0.000;2023-03-12T14:35:39;4.60;;;2.80;;
28958;SDS011;16066;0.000;0.000;2023-03-12T14:38:26;4.63;;;2.83;;
28958;SDS011;16066;0.000;0.000;2023-03-12T14:41:03;4.97;;;3.20;;
28958;SDS011;16066;0.000;0.000;2023-03-12T14:43:37;5.43;;;3.07;;
28958;SDS011;16066;0.000;0.000;2023-03-12T14:46:04;4.20;;;3.13;;
28958;SDS011;16066;0.000;0.000;2023-03-12T14:48:38;4.33;;;3.00;;
28958;SDS011;16066;0.000;0.000;2023-03-12T14:51:04;4.70;;;3.00;;
28958;SDS011;16066;0.000;0.000;2023-03-12T14:56:09;6.47;;;2.90;;
28958;SDS011;16066;0.000;0.000;2023-03-12T14:58:51;3.40;;;2.43;;
28958;SDS011;16066;0.000;0.000;2023-03-12T15:01:18;6.97;;;2.90;;
28958;SDS011;16066;0.000;0.000;2023-03-12T15:03:54;3.97;;;3.00;;
28958;SDS011;16066;0.000;0.000;2023-03-12T15:06:29;8.97;;;3.20;;
28958;SDS011;16066;0.000;0.000;2023-03-12T15:08:59;2.93;;;2.23;;
28958;SDS011;16066;0.000;0.000;2023-03-12T15:11:28;6.40;;;3.00;;
28958;SDS011;16066;0.000;0.000;2023-03-12T15:13:59;7.37;;;3.20;;
28958;SDS011;16066;0.000;0.000;2023-03-12T15:16:28;5.57;;;3.17;;
28958;SDS011;16066;0.000;0.000;2023-03-12T15:18:54;3.93;;;2.93;;
28958;SDS011;16066;0.000;0.000;2023-03-12T15:21:21;5.30;;;3.50;;
28958;SDS011;16066;0.000;0.000;2023-03-12T15:23:46;4.23;;;3.10;;
28958;SDS011;16066;0.000;0.000;2023-03-12T15:28:55;6.00;;;3.50;;
28958;SDS011;16066;0.000;0.000;2023-03-12T15:31:39;6.57;;;3.40;;
28958;SDS011;16066;0.000;0.000;2023-03-12T15:34:06;5.50;;;3.43;;
28958;SDS011;16066;0.000;0.000;2023-03-12T15:36:34;4.67;;;3.53;;
28958;SDS011;16066;0.000;0.000;2023-03-12T15:39:02;6.90;;;3.97;;
28958;SDS011;16066;0.000;0.000;2023-03-12T15:41:44;3.40;;;2.80;;
28958;SDS011;16066;0.000;0.000;2023-03-12T15:44:26;6.23;;;3.63;;
28958;SDS011;16066;0.000;0.000;2023-03-12T15:47:09;5.07;;;3.20;;
28958;SDS011;16066;0.000;0.000;2023-03-12T15:49:43;4.93;;;2.83;;
28958;SDS011;16066;0.000;0.000;2023-03-12T15:54:58;4.70;;;3.03;;
28958;SDS011;16066;0.000;0.000;2023-03-12T15:57:27;5.32;;;3.05;;
28958;SDS011;16066;0.000;0.000;2023-03-12T16:02:59;6.73;;;3.10;;
28958;SDS011;16066;0.000;0.000;2023-03-12T16:05:32;4.17;;;2.90;;
28958;SDS011;16066;0.000;0.000;2023-03-12T16:08:16;5.60;;;3.17;;
28958;SDS011;16066;0.000;0.000;2023-03-12T16:10:44;5.03;;;3.43;;
28958;SDS011;16066;0.000;0.000;2023-03-12T16:13:12;9.53;;;4.20;;
28958;SDS011;16066;0.000;0.000;2023-03-12T16:15:39;4.20;;;3.07;;
28958;SDS011;16066;0.000;0.000;2023-03-12T16:18:10;7.13;;;3.83;;
28958;SDS011;16066;0.000;0.000;2023-03-12T16:20:37;6.27;;;3.07;;
28958;SDS011;16066;0.000;0.000;2023-03-12T16:23:03;6.37;;;3.53;;
28958;SDS011;16066;0.000;0.000;2023-03-12T16:25:29;5.90;;;3.17;;
28958;SDS011;16066;0.000;0.000;2023-03-12T16:27:55;4.63;;;3.20;;
28958;SDS011;16066;0.000;0.000;2023-03-12T16:30:40;5.23;;;3.20;;
28958;SDS011;16066;0.000;0.000;2023-03-12T16:33:06;4.73;;;2.90;;
28958;SDS011;16066;0.000;0.000;2023-03-12T16:35:32;7.60;;;3.53;;
28958;SDS011;16066;0.000;0.000;2023-03-12T16:38:00;5.27;;;3.23;;
28958;SDS011;16066;0.000;0.000;2023-03-12T16:40:30;6.27;;;3.50;;
28958;SDS011;16066;0.000;0.000;2023-03-12T16:42:58;8.20;;;4.00;;
28958;SDS011;16066;0.000;0.000;2023-03-12T16:45:27;6.57;;;3.60;;
28958;SDS011;16066;0.000;0.000;2023-03-12T16:47:57;4.53;;;3.03;;
28958;SDS011;16066;0.000;0.000;2023-03-12T16:50:24;5.70;;;3.10;;
28958;SDS011;16066;0.000;0.000;2023-03-12T16:52:51;7.37;;;3.33;;
28958;SDS011;16066;0.000;0.000;2023-03-12T16:55:17;8.20;;;3.80;;
28958;SDS011;16066;0.000;0.000;2023-03-12T16:57:48;6.07;;;3.73;;
28958;SDS011;16066;0.000;0.000;2023-03-12T17:00:20;4.13;;;3.00;;
28958;SDS011;16066;0.000;0.000;2023-03-12T17:02:47;6.77;;;3.33;;